createdAt,value
2017-11-12T00:00:05.654Z,23.47
2017-11-12T00:02:32.089Z,23.83
2017-11-12T00:04:58.463Z,24.10
2017-11-12T00:07:25.777Z,25.57
2017-11-12T00:09:52.180Z,26.30
2017-11-12T00:12:18.542Z,26.23
2017-11-12T00:14:44.991Z,26.37
2017-11-12T00:17:11.433Z,25.27
2017-11-12T00:19:37.847Z,24.97
2017-11-12T00:22:04.175Z,25.40
2017-11-12T00:24:31.433Z,29.10
2017-11-12T00:26:57.837Z,25.70
2017-11-12T00:29:24.302Z,25.57
2017-11-12T00:31:50.736Z,28.60
2017-11-12T00:34:17.182Z,25.27
2017-11-12T00:36:43.584Z,23.47
2017-11-12T00:39:10.045Z,24.37
2017-11-12T00:41:37.215Z,24.20
2017-11-12T00:44:03.627Z,24.10
2017-11-12T00:46:30.061Z,25.93
2017-11-12T00:48:56.380Z,23.40
2017-11-12T00:51:22.838Z,26.70
2017-11-12T00:53:49.201Z,26.33
2017-11-12T00:56:15.616Z,26.53
2017-11-12T00:58:42.832Z,26.47
2017-11-12T01:01:09.284Z,29.83
2017-11-12T01:03:35.821Z,30.33
2017-11-12T01:06:02.283Z,30.00
2017-11-12T01:08:28.802Z,32.20
2017-11-12T01:10:55.227Z,29.43
2017-11-12T01:13:21.774Z,31.57
2017-11-12T01:15:48.916Z,31.60
2017-11-12T01:18:15.351Z,32.40
2017-11-12T01:20:41.785Z,31.87
2017-11-12T01:23:08.161Z,32.63
2017-11-12T01:25:34.623Z,31.73
2017-11-12T01:28:01.091Z,31.60
2017-11-12T01:30:27.533Z,31.90
2017-11-12T01:32:54.675Z,32.33
2017-11-12T01:35:21.119Z,32.10
2017-11-12T01:37:47.575Z,31.60
2017-11-12T01:40:13.916Z,33.13
2017-11-12T01:42:40.384Z,31.80
2017-11-12T01:45:06.850Z,30.70
2017-11-12T01:47:33.284Z,32.63
2017-11-12T01:50:00.408Z,33.20
2017-11-12T01:52:26.916Z,34.00
2017-11-12T01:54:53.283Z,34.10
2017-11-12T01:57:19.731Z,33.20
2017-11-12T01:59:46.175Z,34.57
2017-11-12T02:02:12.619Z,33.77
2017-11-12T02:04:39.073Z,32.47
2017-11-12T02:07:06.298Z,30.87
2017-11-12T02:09:32.742Z,24.33
2017-11-12T02:11:59.136Z,22.87
2017-11-12T02:14:25.603Z,23.70
2017-11-12T02:16:52.044Z,27.47
2017-11-12T02:19:18.403Z,27.70
2017-11-12T02:21:44.784Z,29.23
2017-11-12T02:24:12.064Z,30.47
2017-11-12T02:26:38.491Z,30.23
2017-11-12T02:29:04.859Z,31.10
2017-11-12T02:31:31.361Z,29.30
2017-11-12T02:33:57.796Z,30.87
2017-11-12T02:36:24.231Z,30.03
2017-11-12T02:38:50.665Z,29.80
2017-11-12T02:41:17.819Z,30.17
2017-11-12T02:43:44.281Z,26.90
2017-11-12T02:46:10.797Z,23.50
2017-11-12T02:48:37.231Z,27.20
2017-11-12T02:51:03.659Z,23.50
2017-11-12T02:53:30.092Z,24.07
2017-11-12T02:55:56.527Z,23.07
2017-11-12T02:58:23.679Z,24.07
2017-11-12T03:00:50.115Z,25.50
2017-11-12T03:03:16.547Z,23.77
2017-11-12T03:05:42.927Z,25.23
2017-11-12T03:08:09.426Z,24.50
2017-11-12T03:10:35.878Z,24.57
2017-11-12T03:13:02.398Z,24.23
2017-11-12T03:15:29.549Z,27.10
2017-11-12T03:17:55.908Z,24.67
2017-11-12T03:20:22.384Z,26.10
2017-11-12T03:22:48.827Z,25.40
2017-11-12T03:25:15.310Z,25.37
2017-11-12T03:27:41.716Z,25.20
2017-11-12T03:30:08.158Z,24.40
2017-11-12T03:32:35.406Z,24.00
2017-11-12T03:35:01.845Z,24.13
2017-11-12T03:37:28.272Z,23.70
2017-11-12T03:39:54.707Z,24.00
2017-11-12T03:42:21.251Z,22.87
2017-11-12T03:44:47.712Z,23.33
2017-11-12T03:47:14.115Z,24.30
2017-11-12T03:49:41.370Z,22.57
2017-11-12T03:52:07.803Z,23.73
2017-11-12T03:54:34.245Z,24.33
2017-11-12T03:57:00.671Z,23.90
2017-11-12T03:59:27.105Z,20.73
2017-11-12T04:01:53.539Z,22.30
2017-11-12T04:04:20.077Z,23.20
2017-11-12T04:06:47.136Z,21.10
2017-11-12T04:09:13.562Z,22.77
2017-11-12T04:11:40.003Z,23.00
2017-11-12T04:14:06.431Z,22.90
2017-11-12T04:16:32.808Z,25.67
2017-11-12T04:18:59.198Z,25.43
2017-11-12T04:21:25.632Z,25.40
2017-11-12T04:23:52.820Z,31.70
2017-11-12T04:26:19.218Z,25.90
2017-11-12T04:28:45.552Z,25.13
2017-11-12T04:31:11.985Z,24.13
2017-11-12T04:33:38.421Z,23.20
2017-11-12T04:36:04.859Z,23.87
2017-11-12T04:38:31.298Z,23.90
2017-11-12T04:40:58.340Z,22.40
2017-11-12T04:43:24.696Z,21.60
2017-11-12T04:45:51.135Z,20.13
2017-11-12T04:48:17.651Z,20.27
2017-11-12T04:50:44.048Z,19.47
2017-11-12T04:53:10.515Z,19.10
2017-11-12T04:55:36.949Z,22.60
2017-11-12T04:58:04.137Z,24.13
2017-11-12T05:00:30.535Z,23.43
2017-11-12T05:02:56.977Z,25.40
2017-11-12T05:05:23.413Z,24.07
2017-11-12T05:07:49.804Z,24.40
2017-11-12T05:10:16.271Z,23.40
2017-11-12T05:12:42.714Z,23.40
2017-11-12T05:15:09.961Z,24.27
2017-11-12T05:17:36.383Z,22.37
2017-11-12T05:20:02.835Z,22.60
2017-11-12T05:22:29.263Z,22.40
2017-11-12T05:24:55.700Z,22.10
2017-11-12T05:27:22.139Z,21.53
2017-11-12T05:29:48.598Z,20.40
2017-11-12T05:32:15.822Z,21.30
2017-11-12T05:34:42.256Z,20.63
2017-11-12T05:37:08.699Z,20.90
2017-11-12T05:39:35.126Z,19.93
2017-11-12T05:42:01.560Z,21.23
2017-11-12T05:44:27.996Z,21.90
2017-11-12T05:46:54.368Z,20.73
2017-11-12T05:49:21.691Z,21.40
2017-11-12T05:51:48.119Z,21.80
2017-11-12T05:54:14.491Z,20.47
2017-11-12T05:56:40.884Z,19.80
2017-11-12T05:59:07.320Z,19.67
2017-11-12T06:01:33.754Z,17.97
2017-11-12T06:04:00.189Z,18.73
2017-11-12T06:06:27.443Z,21.10
2017-11-12T06:08:53.776Z,20.53
2017-11-12T06:11:20.218Z,23.37
2017-11-12T06:13:46.615Z,25.63
2017-11-12T06:16:13.089Z,23.00
2017-11-12T06:18:39.616Z,23.10
2017-11-12T06:21:06.059Z,21.80
2017-11-12T06:23:33.104Z,22.67
2017-11-12T06:25:59.535Z,22.40
2017-11-12T06:28:25.995Z,22.90
2017-11-12T06:30:52.407Z,23.60
2017-11-12T06:33:18.776Z,22.47
2017-11-12T06:35:45.274Z,24.37
2017-11-12T06:38:11.819Z,23.00
2017-11-12T06:40:38.900Z,27.20
2017-11-12T06:43:05.294Z,23.93
2017-11-12T06:45:31.833Z,21.90
2017-11-12T06:47:58.275Z,22.90
2017-11-12T06:50:24.697Z,21.80
2017-11-12T06:52:51.034Z,23.73
2017-11-12T06:55:17.469Z,23.20
2017-11-12T06:57:44.625Z,23.13
2017-11-12T07:00:11.053Z,20.90
2017-11-12T07:02:37.499Z,18.87
2017-11-12T07:05:03.932Z,18.87
2017-11-12T07:07:30.367Z,18.70
2017-11-12T07:09:56.792Z,18.10
2017-11-12T07:12:23.228Z,18.60
2017-11-12T07:14:50.490Z,20.07
2017-11-12T07:17:16.883Z,20.33
2017-11-12T07:19:43.358Z,19.37
2017-11-12T07:22:09.796Z,19.73
2017-11-12T07:24:36.220Z,16.57
2017-11-12T07:27:02.656Z,13.93
2017-11-12T07:29:29.089Z,16.50
2017-11-12T07:31:56.279Z,16.43
2017-11-12T07:34:22.750Z,18.93
2017-11-12T07:36:49.221Z,17.23
2017-11-12T07:39:15.668Z,17.60
2017-11-12T07:41:42.087Z,17.23
2017-11-12T07:44:08.527Z,17.33
2017-11-12T07:46:34.952Z,20.90
2017-11-12T07:49:02.206Z,21.80
2017-11-12T07:51:28.640Z,22.20
2017-11-12T07:53:55.016Z,21.73
2017-11-12T07:56:21.416Z,23.33
2017-11-12T07:58:47.799Z,25.20
2017-11-12T08:01:14.248Z,26.47
2017-11-12T08:03:40.718Z,25.40
2017-11-12T08:06:07.870Z,28.73
2017-11-12T08:08:34.296Z,28.53
2017-11-12T08:11:00.731Z,31.87
2017-11-12T08:13:27.053Z,30.53
2017-11-12T08:15:53.500Z,30.70
2017-11-12T08:18:19.941Z,31.60
2017-11-12T08:20:46.281Z,31.90
2017-11-12T08:23:13.499Z,31.83
2017-11-12T08:25:39.954Z,30.70
2017-11-12T08:28:06.398Z,35.10
2017-11-12T08:30:32.824Z,38.93
2017-11-12T08:32:59.195Z,39.10
2017-11-12T08:35:25.703Z,34.50
2017-11-12T08:37:52.128Z,31.57
2017-11-12T08:40:19.383Z,28.30
2017-11-12T08:42:45.819Z,23.40
2017-11-12T08:45:12.260Z,20.07
2017-11-12T08:47:38.694Z,16.90
2017-11-12T08:50:05.136Z,14.47
2017-11-12T08:52:31.665Z,17.07
2017-11-12T08:54:58.048Z,21.80
2017-11-12T08:57:25.345Z,22.40
2017-11-12T08:59:51.801Z,22.97
2017-11-12T09:02:18.215Z,21.40
2017-11-12T09:04:44.689Z,21.97
2017-11-12T09:07:11.093Z,22.63
2017-11-12T09:09:37.520Z,18.50
2017-11-12T09:12:03.940Z,19.00
2017-11-12T09:14:31.218Z,20.53
2017-11-12T09:16:57.585Z,20.50
2017-11-12T09:19:24.077Z,23.17
2017-11-12T09:21:50.522Z,23.33
2017-11-12T09:24:16.921Z,28.27
2017-11-12T09:26:43.389Z,28.50
2017-11-12T09:29:09.845Z,26.80
2017-11-12T09:31:37.070Z,23.00
2017-11-12T09:34:03.513Z,21.27
2017-11-12T09:36:29.940Z,19.57
2017-11-12T09:38:56.382Z,14.23
2017-11-12T09:41:22.922Z,17.97
2017-11-12T09:43:49.354Z,7.60
2017-11-12T09:46:15.812Z,5.57
2017-11-12T09:48:42.933Z,4.80
2017-11-12T09:51:09.375Z,4.87
2017-11-12T09:53:35.801Z,4.80
2017-11-12T09:56:02.191Z,4.87
2017-11-12T09:58:28.679Z,5.10
2017-11-12T10:00:55.040Z,5.10
2017-11-12T10:03:21.438Z,4.10
2017-11-12T10:05:48.692Z,4.30
2017-11-12T10:08:15.135Z,4.80
2017-11-12T10:10:41.562Z,4.20
2017-11-12T10:13:08.000Z,4.03
2017-11-12T10:15:34.373Z,4.10
2017-11-12T10:18:00.777Z,3.93
2017-11-12T10:20:27.208Z,3.57
2017-11-12T10:22:54.384Z,4.20
2017-11-12T10:25:20.715Z,3.90
2017-11-12T10:27:47.124Z,4.20
2017-11-12T10:30:13.496Z,3.80
2017-11-12T10:32:39.881Z,3.60
2017-11-12T10:35:06.325Z,3.27
2017-11-12T10:37:32.752Z,3.70
2017-11-12T10:39:59.289Z,3.70
2017-11-12T10:42:25.834Z,4.00
2017-11-12T10:44:52.261Z,6.47
2017-11-12T10:47:18.695Z,6.77
2017-11-12T10:49:45.139Z,7.10
2017-11-12T10:52:11.563Z,7.43
2017-11-12T10:54:37.934Z,6.97
2017-11-12T10:57:04.443Z,6.07
2017-11-12T10:59:30.810Z,6.10
2017-11-12T11:01:57.192Z,7.10
2017-11-12T11:04:23.607Z,7.00
2017-11-12T11:06:50.071Z,8.00
2017-11-12T11:09:16.454Z,10.10
2017-11-12T11:11:42.838Z,10.33
2017-11-12T11:14:09.172Z,9.93
2017-11-12T11:16:35.581Z,9.93
2017-11-12T11:19:02.049Z,9.53
2017-11-12T11:21:29.088Z,9.13
2017-11-12T11:23:55.492Z,9.03
2017-11-12T11:26:21.964Z,7.37
2017-11-12T11:28:48.414Z,6.03
2017-11-12T11:31:14.827Z,6.37
2017-11-12T11:33:41.262Z,6.97
2017-11-12T11:36:07.669Z,6.23
2017-11-12T11:38:34.864Z,6.57
2017-11-12T11:41:01.286Z,4.73
2017-11-12T11:43:27.929Z,4.57
2017-11-12T11:45:54.357Z,4.60
2017-11-12T11:48:20.792Z,5.03
2017-11-12T11:50:47.159Z,5.30
2017-11-12T11:53:13.540Z,5.20
2017-11-12T11:55:40.719Z,4.57
2017-11-12T11:58:07.045Z,5.00
2017-11-12T12:00:33.477Z,5.30
2017-11-12T12:02:59.921Z,5.73
2017-11-12T12:05:26.357Z,5.40
2017-11-12T12:07:52.772Z,5.33
2017-11-12T12:10:19.216Z,5.70
2017-11-12T12:12:46.403Z,5.27
2017-11-12T12:15:12.781Z,5.33
2017-11-12T12:17:39.172Z,5.30
2017-11-12T12:20:05.592Z,5.50
2017-11-12T12:22:31.979Z,5.80
2017-11-12T12:24:58.387Z,6.20
2017-11-12T12:27:24.863Z,6.10
2017-11-12T12:29:52.033Z,6.00
2017-11-12T12:32:18.420Z,6.70
2017-11-12T12:34:44.903Z,6.63
2017-11-12T12:37:11.444Z,6.50
2017-11-12T12:39:37.836Z,6.00
2017-11-12T12:42:04.300Z,6.37
2017-11-12T12:44:30.736Z,6.73
2017-11-12T12:46:57.886Z,7.00
2017-11-12T12:49:24.330Z,6.53
2017-11-12T12:51:50.764Z,6.90
2017-11-12T12:54:17.395Z,6.70
2017-11-12T12:56:43.845Z,7.73
2017-11-12T12:59:10.265Z,7.60
2017-11-12T13:01:36.708Z,7.23
2017-11-12T13:04:03.851Z,6.27
2017-11-12T13:06:30.306Z,6.90
2017-11-12T13:08:56.731Z,7.07
2017-11-12T13:11:23.162Z,6.50
2017-11-12T13:13:49.548Z,7.07
2017-11-12T13:16:16.016Z,7.17
2017-11-12T13:18:42.429Z,6.03
2017-11-12T13:21:09.610Z,6.60
2017-11-12T13:23:36.071Z,8.00
2017-11-12T13:26:02.548Z,7.60
2017-11-12T13:28:29.049Z,7.50
2017-11-12T13:30:55.453Z,7.23
2017-11-12T13:33:21.998Z,7.73
2017-11-12T13:35:48.447Z,8.07
2017-11-12T13:38:15.511Z,7.20
2017-11-12T13:40:41.907Z,8.20
2017-11-12T13:43:08.341Z,8.70
2017-11-12T13:45:34.779Z,9.43
2017-11-12T13:48:01.211Z,9.30
2017-11-12T13:50:27.651Z,7.67
2017-11-12T13:52:53.978Z,7.40
2017-11-12T13:55:21.130Z,10.90
2017-11-12T13:57:47.573Z,9.57
2017-11-12T14:00:14.000Z,9.00
2017-11-12T14:02:40.404Z,8.33
2017-11-12T14:05:06.766Z,9.63
2017-11-12T14:07:33.099Z,8.70
2017-11-12T14:09:59.541Z,9.73
2017-11-12T14:12:26.674Z,10.53
2017-11-12T14:14:53.120Z,10.37
2017-11-12T14:17:19.554Z,10.90
2017-11-12T14:19:45.989Z,11.23
2017-11-12T14:22:12.423Z,11.10
2017-11-12T14:24:38.858Z,11.80
2017-11-12T14:27:05.262Z,13.57
2017-11-12T14:29:31.728Z,12.77
2017-11-12T14:31:58.153Z,12.30
2017-11-12T14:34:24.539Z,12.33
2017-11-12T14:36:50.865Z,12.40
2017-11-12T14:39:17.372Z,13.23
2017-11-12T14:41:43.802Z,12.90
2017-11-12T14:44:10.262Z,13.33
2017-11-12T14:46:37.385Z,13.03
2017-11-12T14:49:03.821Z,12.97
2017-11-12T14:51:30.263Z,13.60
2017-11-12T14:53:56.695Z,13.90
2017-11-12T14:56:23.131Z,15.43
2017-11-12T14:58:49.561Z,15.97
2017-11-12T15:01:16.004Z,21.43
2017-11-12T15:03:43.259Z,21.50
2017-11-12T15:06:09.685Z,20.97
2017-11-12T15:08:36.120Z,21.60
2017-11-12T15:11:02.522Z,23.50
2017-11-12T15:13:28.995Z,23.60
2017-11-12T15:15:55.421Z,23.37
2017-11-12T15:18:21.957Z,23.60
2017-11-12T15:20:49.118Z,24.27
2017-11-12T15:23:15.545Z,26.60
2017-11-12T15:25:41.978Z,30.47
2017-11-12T15:28:08.397Z,34.33
2017-11-12T15:30:34.850Z,32.50
2017-11-12T15:33:01.215Z,29.77
2017-11-12T15:35:27.615Z,25.30
2017-11-12T15:37:54.877Z,32.37
2017-11-12T15:40:21.414Z,31.53
2017-11-12T15:42:47.841Z,30.67
2017-11-12T15:45:14.291Z,32.27
2017-11-12T15:47:40.718Z,39.20
2017-11-12T15:50:07.144Z,31.70
2017-11-12T15:52:34.100Z,30.87
2017-11-12T15:55:00.842Z,27.97
2017-11-12T15:57:27.268Z,25.20
2017-11-12T15:59:53.703Z,28.07
2017-11-12T16:02:20.138Z,31.63
2017-11-12T16:04:46.572Z,31.07
2017-11-12T16:07:13.027Z,30.80
2017-11-12T16:09:39.441Z,32.07
2017-11-12T16:12:06.704Z,31.93
2017-11-12T16:14:33.027Z,36.30
2017-11-12T16:16:59.470Z,38.10
2017-11-12T16:19:25.869Z,44.40
2017-11-12T16:21:52.332Z,41.90
2017-11-12T16:24:18.776Z,41.53
2017-11-12T16:26:45.144Z,34.10
2017-11-12T16:29:12.400Z,33.20
2017-11-12T16:31:38.875Z,34.90
2017-11-12T16:34:05.327Z,35.03
2017-11-12T16:36:31.758Z,40.70
2017-11-12T16:38:58.193Z,43.03
2017-11-12T16:41:24.595Z,42.60
2017-11-12T16:43:51.068Z,37.77
2017-11-12T16:46:18.160Z,31.37
2017-11-12T16:48:44.652Z,32.60
2017-11-12T16:51:11.084Z,33.83
2017-11-12T16:53:37.552Z,30.50
2017-11-12T16:56:03.953Z,32.23
2017-11-12T16:58:30.392Z,45.93
2017-11-12T17:00:56.823Z,35.30
2017-11-12T17:03:24.084Z,38.00
2017-11-12T17:05:50.500Z,40.37
2017-11-12T17:08:16.958Z,43.43
2017-11-12T17:10:43.315Z,43.17
2017-11-12T17:13:09.831Z,44.30
2017-11-12T17:15:36.252Z,41.00
2017-11-12T17:18:02.688Z,41.27
2017-11-12T17:20:29.844Z,38.33
2017-11-12T17:22:56.279Z,41.37
2017-11-12T17:25:22.707Z,53.50
2017-11-12T17:27:49.141Z,48.87
2017-11-12T17:30:15.584Z,48.33
2017-11-12T17:32:41.907Z,47.93
2017-11-12T17:35:08.328Z,49.83
2017-11-12T17:37:35.494Z,53.00
2017-11-12T17:40:01.938Z,54.60
2017-11-12T17:42:28.363Z,54.57
2017-11-12T17:44:54.800Z,45.30
2017-11-12T17:47:21.233Z,45.27
2017-11-12T17:49:47.668Z,44.90
2017-11-12T17:52:14.103Z,45.50
2017-11-12T17:54:41.380Z,48.10
2017-11-12T17:57:07.790Z,55.20
2017-11-12T17:59:34.197Z,51.97
2017-11-12T18:02:00.669Z,50.93
2017-11-12T18:04:27.094Z,50.97
2017-11-12T18:06:53.530Z,50.07
2017-11-12T18:09:19.988Z,51.27
2017-11-12T18:11:47.129Z,50.27
2017-11-12T18:14:13.559Z,47.83
2017-11-12T18:16:39.984Z,47.50
2017-11-12T18:19:06.392Z,51.73
2017-11-12T18:21:32.863Z,51.63
2017-11-12T18:23:59.230Z,50.10
2017-11-12T18:26:25.734Z,47.50
2017-11-12T18:28:52.772Z,41.53
2017-11-12T18:31:19.212Z,37.67
2017-11-12T18:33:45.663Z,39.10
2017-11-12T18:36:12.077Z,38.87
2017-11-12T18:38:38.525Z,47.13
2017-11-12T18:41:04.946Z,49.00
2017-11-12T18:43:31.320Z,42.77
2017-11-12T18:45:58.605Z,42.60
2017-11-12T18:48:25.073Z,41.10
2017-11-12T18:50:51.504Z,40.80
2017-11-12T18:53:17.939Z,41.50
2017-11-12T18:55:44.383Z,40.67
2017-11-12T18:58:10.807Z,40.27
2017-11-12T19:00:37.251Z,40.47
2017-11-12T19:03:04.498Z,38.97
2017-11-12T19:05:30.957Z,39.13
2017-11-12T19:07:57.368Z,38.57
2017-11-12T19:10:23.799Z,44.07
2017-11-12T19:12:50.133Z,41.47
2017-11-12T19:15:16.568Z,38.57
2017-11-12T19:17:43.016Z,39.17
2017-11-12T19:20:10.258Z,40.20
2017-11-12T19:22:36.709Z,42.50
2017-11-12T19:25:03.147Z,51.23
2017-11-12T19:27:29.564Z,41.93
2017-11-12T19:29:55.995Z,48.10
2017-11-12T19:32:22.364Z,51.63
2017-11-12T19:34:48.731Z,50.63
2017-11-12T19:37:16.024Z,52.10
2017-11-12T19:39:42.404Z,57.27
2017-11-12T19:42:08.887Z,53.30
2017-11-12T19:44:35.321Z,57.17
2017-11-12T19:47:01.764Z,58.20
2017-11-12T19:49:28.199Z,55.17
2017-11-12T19:51:54.624Z,50.90
2017-11-12T19:54:21.870Z,51.90
2017-11-12T19:56:48.331Z,45.13
2017-11-12T19:59:14.749Z,42.17
2017-11-12T20:01:41.216Z,38.60
2017-11-12T20:04:07.625Z,33.50
2017-11-12T20:06:34.060Z,45.57
2017-11-12T20:09:00.425Z,34.63
2017-11-12T20:11:27.641Z,34.50
2017-11-12T20:13:54.074Z,26.50
2017-11-12T20:16:20.509Z,25.33
2017-11-12T20:18:46.952Z,32.87
2017-11-12T20:21:13.486Z,38.20
2017-11-12T20:23:39.914Z,36.20
2017-11-12T20:26:06.370Z,36.03
2017-11-12T20:28:33.511Z,29.37
2017-11-12T20:31:00.065Z,30.13
2017-11-12T20:33:26.407Z,32.30
2017-11-12T20:35:52.744Z,36.80
2017-11-12T20:38:19.269Z,35.37
2017-11-12T20:40:45.693Z,35.27
2017-11-12T20:43:12.108Z,39.90
2017-11-12T20:45:39.260Z,37.97
2017-11-12T20:48:05.695Z,39.70
2017-11-12T20:50:32.149Z,38.40
2017-11-12T20:52:58.564Z,36.50
2017-11-12T20:55:25.007Z,37.97
2017-11-12T20:57:51.544Z,42.73
2017-11-12T21:00:17.978Z,44.13
2017-11-12T21:02:45.121Z,48.07
2017-11-12T21:05:11.564Z,43.23
2017-11-12T21:07:37.994Z,39.90
2017-11-12T21:10:04.426Z,35.57
2017-11-12T21:12:30.868Z,35.10
2017-11-12T21:14:57.307Z,31.97
2017-11-12T21:17:23.833Z,32.33
2017-11-12T21:19:50.886Z,28.90
2017-11-12T21:22:17.250Z,22.90
2017-11-12T21:24:43.648Z,24.97
2017-11-12T21:27:10.090Z,23.37
2017-11-12T21:29:36.527Z,20.43
2017-11-12T21:32:03.002Z,18.77
2017-11-12T21:34:29.490Z,19.10
2017-11-12T21:36:56.670Z,19.10
2017-11-12T21:39:23.096Z,18.37
2017-11-12T21:41:49.622Z,19.13
2017-11-12T21:44:16.075Z,19.73
2017-11-12T21:46:42.588Z,16.77
2017-11-12T21:49:09.048Z,16.47
2017-11-12T21:51:35.457Z,16.37
2017-11-12T21:54:02.707Z,16.77
2017-11-12T21:56:29.043Z,16.10
2017-11-12T21:58:55.484Z,17.40
2017-11-12T22:01:21.900Z,15.70
2017-11-12T22:03:48.320Z,15.23
2017-11-12T22:06:14.779Z,15.23
2017-11-12T22:08:41.222Z,15.47
2017-11-12T22:11:08.403Z,15.07
2017-11-12T22:13:34.740Z,15.83
2017-11-12T22:16:01.244Z,15.67
2017-11-12T22:18:27.670Z,16.13
2017-11-12T22:20:54.104Z,16.20
2017-11-12T22:23:20.548Z,18.50
2017-11-12T22:25:46.982Z,18.90
2017-11-12T22:28:14.330Z,20.10
2017-11-12T22:30:40.773Z,18.67
2017-11-12T22:33:07.199Z,18.40
2017-11-12T22:35:33.635Z,17.07
2017-11-12T22:38:00.045Z,17.87
2017-11-12T22:40:26.504Z,16.53
2017-11-12T22:42:52.939Z,16.63
2017-11-12T22:45:20.192Z,16.67
2017-11-12T22:47:46.637Z,16.83
2017-11-12T22:50:13.063Z,17.10
2017-11-12T22:52:39.510Z,17.30
2017-11-12T22:55:05.900Z,17.43
2017-11-12T22:57:32.374Z,16.63
2017-11-12T22:59:59.991Z,17.30
2017-11-12T23:02:26.400Z,17.30
2017-11-12T23:04:52.907Z,17.43
2017-11-12T23:07:19.336Z,17.07
2017-11-12T23:09:45.779Z,17.20
2017-11-12T23:12:12.206Z,16.87
2017-11-12T23:14:38.744Z,16.30
2017-11-12T23:17:05.072Z,16.27
2017-11-12T23:19:32.438Z,17.47
2017-11-12T23:21:58.863Z,17.77
2017-11-12T23:24:25.298Z,16.57
2017-11-12T23:26:51.734Z,15.73
2017-11-12T23:29:18.167Z,16.57
2017-11-12T23:31:44.611Z,17.60
2017-11-12T23:34:11.056Z,16.47
2017-11-12T23:36:38.299Z,17.80
2017-11-12T23:39:04.664Z,17.97
2017-11-12T23:41:31.058Z,15.23
2017-11-12T23:43:57.492Z,15.87
2017-11-12T23:46:23.927Z,14.93
2017-11-12T23:48:50.319Z,16.43
2017-11-12T23:51:16.791Z,17.00
2017-11-12T23:53:43.930Z,16.60
2017-11-12T23:56:10.351Z,17.57
2017-11-12T23:58:36.824Z,18.77
